Metar Aviation Weather Data LFTW Nîmes-Arles-Camargue

10°C Temp
6°C Dewpoint
76% Humidity
Temperature
13 KM/H
8 MPH
7 KTS
60°
East North
East

Wind Speed
Clear
Conditions
Pressure 1019 (hPa) - 30.09 (in)
Visibility 6.2 (mi) - 10.0 (km)

Current Conditions
LFTW
Nîmes-Arles-Camargue
Metar :LFTW 171530Z AUTO 06007KT CAVOK 10/06 Q1019 TEMPO BKN030TCU
Sat 17th November 17:30 pm

Nîmes-Arles-Camargue
  Metar Aviation API Data Provided by https://www.checkwx.com/ PHP scripts by weather34.com ©2018